createdAt,value
2022-08-27T00:10:55.182Z,20.93
2022-08-27T00:25:50.044Z,20.85
2022-08-27T00:40:42.410Z,20.89
2022-08-27T00:55:38.020Z,20.82
2022-08-27T01:10:33.587Z,20.84
2022-08-27T01:25:25.888Z,20.85
2022-08-27T01:40:22.209Z,20.88
2022-08-27T01:55:15.067Z,20.90
2022-08-27T02:10:08.268Z,20.86
2022-08-27T02:25:00.463Z,20.80
2022-08-27T02:39:52.886Z,20.84
2022-08-27T02:54:50.226Z,20.87
2022-08-27T03:09:41.580Z,20.92
2022-08-27T03:24:34.866Z,20.92
2022-08-27T03:39:27.301Z,20.93
2022-08-27T03:54:19.939Z,20.93
2022-08-27T04:09:11.854Z,20.96
2022-08-27T04:24:05.792Z,20.97
2022-08-27T04:38:58.862Z,21.01
2022-08-27T04:53:52.010Z,20.98
2022-08-27T05:08:44.223Z,21.06
2022-08-27T05:23:37.240Z,21.13
2022-08-27T05:38:30.098Z,21.22
2022-08-27T05:53:22.258Z,21.25
2022-08-27T06:08:14.593Z,21.32
2022-08-27T06:23:07.312Z,21.38
2022-08-27T06:38:00.194Z,21.40
2022-08-27T06:52:53.090Z,21.40
2022-08-27T07:07:48.837Z,21.53
2022-08-27T07:22:46.087Z,21.53
2022-08-27T07:37:47.650Z,21.45
2022-08-27T07:52:39.367Z,21.42
2022-08-27T08:07:32.672Z,21.29
2022-08-27T08:22:22.807Z,21.09
2022-08-27T08:37:15.018Z,20.93
2022-08-27T08:52:34.329Z,20.86
2022-08-27T09:07:35.080Z,20.70
2022-08-27T09:22:39.133Z,20.55
2022-08-27T09:37:43.905Z,20.50
2022-08-27T09:52:56.128Z,20.54
2022-08-27T10:07:53.022Z,20.58
2022-08-27T10:23:10.525Z,20.61
2022-08-27T10:38:24.922Z,20.59
2022-08-27T10:53:32.381Z,20.61
2022-08-27T11:08:41.253Z,20.54
2022-08-27T11:23:38.571Z,20.47
2022-08-27T11:38:34.077Z,20.44
2022-08-27T11:53:32.409Z,20.57
2022-08-27T12:08:31.272Z,20.60
2022-08-27T12:23:42.284Z,20.66
2022-08-27T12:38:46.908Z,20.77
2022-08-27T12:53:44.462Z,20.95
2022-08-27T13:08:38.584Z,21.09
2022-08-27T13:23:31.412Z,21.22
2022-08-27T13:38:24.754Z,21.44
2022-08-27T13:53:39.132Z,21.60
2022-08-27T14:08:37.482Z,21.83
2022-08-27T14:23:31.162Z,22.18
2022-08-27T14:38:22.650Z,22.66
2022-08-27T14:53:15.400Z,23.54
2022-08-27T15:08:11.275Z,23.75
2022-08-27T15:23:06.430Z,24.28
2022-08-27T15:38:03.044Z,24.50
2022-08-27T15:52:53.527Z,24.01
2022-08-27T16:07:44.517Z,23.94
2022-08-27T16:22:35.372Z,23.89
2022-08-27T16:37:27.411Z,23.84
2022-08-27T16:52:18.544Z,23.66
2022-08-27T17:07:11.325Z,23.59
2022-08-27T17:22:03.905Z,23.55
2022-08-27T17:36:55.474Z,23.45
2022-08-27T17:51:48.636Z,23.27
2022-08-27T18:06:40.873Z,23.10
2022-08-27T18:21:32.274Z,22.90
2022-08-27T18:36:25.490Z,22.79
2022-08-27T18:51:19.609Z,22.72
2022-08-27T19:06:11.926Z,22.57
2022-08-27T19:21:09.574Z,22.47
2022-08-27T19:35:56.591Z,22.46
2022-08-27T19:50:48.803Z,22.44
2022-08-27T20:05:52.022Z,22.47
2022-08-27T20:35:55.831Z,22.23
2022-08-27T20:52:30.489Z,22.23
2022-08-27T21:20:57.159Z,22.01
2022-08-27T21:35:49.570Z,21.83
2022-08-27T21:50:41.209Z,21.70
2022-08-27T22:05:32.707Z,21.57
2022-08-27T22:20:25.022Z,21.50
2022-08-27T22:35:16.973Z,21.41
2022-08-27T22:50:08.547Z,21.29
2022-08-27T23:05:02.502Z,21.19
2022-08-27T23:19:51.820Z,21.05
2022-08-27T23:34:45.797Z,20.95
2022-08-27T23:49:37.533Z,20.79
